Time;durP1;ratioP1;P1;durP2;ratioP2;P2;SDS_P1;SDS_P2;PMS_P1;PMS_P2;Temp;Humidity;BMP_temperature;BMP_pressure;BME280_temperature;BME280_humidity;BME280_pressure;Samples;Min_cycle;Max_cycle;Signal;HPM_P1;HPM_P2
2021/12/04 00:00:37;;;;;;;3.03;2.40;;;;;;;0.06;100.00;94644.16;5111483;28;24421;-72
2021/12/04 00:03:03;;;;;;;3.53;2.58;;;;;;;0.08;100.00;94642.38;5111618;28;24856;-71
2021/12/04 00:05:30;;;;;;;4.50;2.38;;;;;;;0.10;100.00;94644.84;5111134;28;24460;-71
2021/12/04 00:07:57;;;;;;;4.03;2.85;;;;;;;0.05;100.00;94637.41;5111201;28;24417;-71
2021/12/04 00:10:28;;;;;;;4.30;2.53;;;;;;;0.02;100.00;94627.34;5111593;28;24413;-72
2021/12/04 00:12:55;;;;;;;4.28;3.00;;;;;;;-0.01;100.00;94622.38;5111417;28;24425;-72
2021/12/04 00:15:22;;;;;;;5.15;2.67;;;;;;;0.03;100.00;94629.00;5111162;28;24416;-72
2021/12/04 00:17:48;;;;;;;3.30;2.70;;;;;;;0.14;100.00;94616.66;5111062;28;24453;-72
2021/12/04 00:20:15;;;;;;;5.40;3.30;;;;;;;0.12;100.00;94618.44;5111112;28;24409;-73
2021/12/04 00:22:42;;;;;;;4.03;2.83;;;;;;;0.10;100.00;94609.22;5111040;28;24425;-72
2021/12/04 00:25:10;;;;;;;5.10;3.28;;;;;;;0.16;100.00;94616.59;5110712;28;24421;-72
2021/12/04 00:27:37;;;;;;;7.35;3.70;;;;;;;0.14;100.00;94611.56;5110878;28;24417;-72
2021/12/04 00:30:07;;;;;;;5.53;3.60;;;;;;;0.16;100.00;94607.25;5110804;28;24475;-72
2021/12/04 00:32:35;;;;;;;4.70;3.40;;;;;;;0.15;100.00;94602.19;5110877;28;24417;-71
2021/12/04 00:35:09;;;;;;;3.88;3.13;;;;;;;0.12;100.00;94599.81;5110573;28;24444;-72
2021/12/04 00:37:55;;;;;;;3.90;2.53;;;;;;;0.17;100.00;94592.78;5110580;28;24990;-72
2021/12/04 00:43:23;;;;;;;2.78;2.55;;;;;;;0.13;100.00;94592.09;5110806;28;24466;-72
2021/12/04 00:51:19;;;;;;;3.13;2.65;;;;;;;-0.02;100.00;94567.28;5110700;28;24450;-72
2021/12/04 00:53:47;;;;;;;3.23;2.60;;;;;;;0.09;100.00;94572.75;5110809;28;24465;-72
2021/12/04 00:56:13;;;;;;;3.60;2.80;;;;;;;0.15;100.00;94575.06;5110480;28;24420;-72
2021/12/04 00:58:40;;;;;;;3.30;2.67;;;;;;;0.11;100.00;94565.88;5110468;28;24822;-72
2021/12/04 01:01:08;;;;;;;4.45;2.80;;;;;;;0.07;100.00;94556.69;5110604;28;24484;-72
2021/12/04 01:03:35;;;;;;;3.60;2.50;;;;;;;0.08;100.00;94549.91;5110590;28;24417;-72
2021/12/04 01:06:01;;;;;;;4.03;2.72;;;;;;;0.08;100.00;94555.00;5110340;28;24500;-72
2021/12/04 01:08:28;;;;;;;5.10;2.90;;;;;;;0.06;100.00;94557.59;5110721;28;24449;-73
2021/12/04 01:10:54;;;;;;;5.00;2.83;;;;;;;0.11;100.00;94553.16;5110623;28;24466;-71
2021/12/04 01:13:21;;;;;;;5.80;3.55;;;;;;;0.31;100.00;94538.75;5110558;28;24422;-73
2021/12/04 01:15:47;;;;;;;4.40;3.35;;;;;;;0.23;100.00;94539.91;5110008;28;24417;-73
2021/12/04 01:18:15;;;;;;;5.63;3.70;;;;;;;0.29;100.00;94538.81;5110538;28;24437;-74
2021/12/04 01:20:41;;;;;;;4.03;3.42;;;;;;;0.27;100.00;94525.31;5110482;28;24429;-73
2021/12/04 01:23:08;;;;;;;5.47;4.00;;;;;;;0.21;100.00;94521.31;5110457;28;24424;-73
2021/12/04 01:25:37;;;;;;;6.07;4.18;;;;;;;0.30;100.00;94521.78;5110152;28;24780;-72
2021/12/04 01:28:04;;;;;;;5.28;3.88;;;;;;;0.35;100.00;94525.00;5110331;28;24520;-73
2021/12/04 01:30:31;;;;;;;6.97;4.65;;;;;;;0.15;100.00;94524.13;5110119;28;24416;-72
2021/12/04 01:32:57;;;;;;;5.70;4.18;;;;;;;0.28;100.00;94518.50;5110446;28;24420;-72
2021/12/04 01:35:25;;;;;;;5.10;4.50;;;;;;;0.20;100.00;94504.38;5109891;28;24424;-72
2021/12/04 01:37:52;;;;;;;4.82;3.88;;;;;;;0.21;100.00;94503.47;5110180;28;24452;-72
2021/12/04 01:40:18;;;;;;;4.38;3.95;;;;;;;0.08;100.00;94499.81;5110681;28;24417;-74
2021/12/04 01:42:45;;;;;;;5.63;4.05;;;;;;;0.08;100.00;94488.81;5110820;28;24490;-73
2021/12/04 01:45:12;;;;;;;5.10;3.90;;;;;;;0.11;100.00;94481.03;5113460;28;24428;-73
2021/12/04 01:47:39;;;;;;;4.18;3.75;;;;;;;0.03;100.00;94489.00;5114012;28;24434;-74
2021/12/04 01:50:07;;;;;;;4.60;3.80;;;;;;;0.07;100.00;94477.78;5113757;28;24942;-72
2021/12/04 01:52:35;;;;;;;5.25;3.80;;;;;;;0.06;100.00;94476.13;5113816;28;24428;-72
2021/12/04 01:55:02;;;;;;;4.18;3.78;;;;;;;0.14;100.00;94455.44;5113378;28;24521;-72
2021/12/04 01:57:28;;;;;;;4.47;4.07;;;;;;;0.13;100.00;94454.63;5113349;28;24425;-72
2021/12/04 01:59:55;;;;;;;4.90;4.07;;;;;;;-0.02;100.00;94461.19;5113834;28;24417;-72
2021/12/04 02:02:22;;;;;;;5.88;4.50;;;;;;;-0.16;100.00;94460.13;5113791;28;24410;-71
2021/12/04 02:04:48;;;;;;;6.97;4.50;;;;;;;-0.15;100.00;94446.50;5113523;28;24418;-74
2021/12/04 02:07:16;;;;;;;5.25;4.60;;;;;;;-0.21;100.00;94445.06;5113223;28;24425;-73
2021/12/04 02:09:44;;;;;;;7.93;4.70;;;;;;;-0.17;100.00;94451.66;5113360;27;24422;-73
2021/12/04 02:12:10;;;;;;;4.53;3.88;;;;;;;-0.15;100.00;94452.44;5113148;28;24791;-73
2021/12/04 02:14:40;;;;;;;4.47;4.07;;;;;;;-0.05;100.00;94445.22;5113426;28;24420;-74
2021/12/04 02:17:07;;;;;;;5.13;4.70;;;;;;;0.06;100.00;94432.03;5113129;28;24425;-72
2021/12/04 02:19:34;;;;;;;4.53;4.13;;;;;;;0.04;100.00;94424.47;5113089;28;24986;-73
2021/12/04 02:22:02;;;;;;;7.82;5.00;;;;;;;0.01;100.00;94416.97;5113285;28;24783;-72
2021/12/04 02:24:29;;;;;;;5.82;4.68;;;;;;;0.05;100.00;94420.22;5113192;28;24418;-72
2021/12/04 02:26:55;;;;;;;5.53;5.03;;;;;;;-0.03;100.00;94431.53;5112721;28;24436;-70
2021/12/04 02:29:22;;;;;;;5.63;4.55;;;;;;;0.06;100.00;94432.84;5113256;28;24817;-72
2021/12/04 02:31:49;;;;;;;5.57;4.95;;;;;;;0.06;100.00;94420.13;5113115;28;24449;-72
2021/12/04 02:34:20;;;;;;;5.95;5.35;;;;;;;-0.03;100.00;94421.38;5113098;28;24463;-72
2021/12/04 02:36:47;;;;;;;6.05;5.45;;;;;;;-0.02;100.00;94414.56;5112472;28;24468;-72
2021/12/04 02:39:23;;;;;;;5.72;5.20;;;;;;;0.12;100.00;94399.50;5112662;28;24449;-72
2021/12/04 02:41:49;;;;;;;7.07;5.97;;;;;;;0.14;100.00;94399.44;5113087;27;24541;-72
2021/12/04 02:44:16;;;;;;;6.70;5.78;;;;;;;0.07;100.00;94386.13;5112918;28;24414;-72
2021/12/04 02:46:42;;;;;;;7.20;6.47;;;;;;;0.11;100.00;94386.81;5112427;28;24783;-72
2021/12/04 02:49:12;;;;;;;5.82;5.22;;;;;;;0.17;100.00;94387.38;5112614;28;24931;-72
2021/12/04 02:51:38;;;;;;;6.93;6.13;;;;;;;0.17;100.00;94373.84;5112402;28;24497;-72
2021/12/04 02:54:05;;;;;;;6.80;6.00;;;;;;;0.16;100.00;94369.66;5112636;28;24428;-72
2021/12/04 02:56:33;;;;;;;6.28;5.60;;;;;;;0.30;100.00;94369.84;5112224;28;24429;-72
2021/12/04 02:59:02;;;;;;;6.70;6.00;;;;;;;0.24;100.00;94368.41;5112565;28;24465;-72
2021/12/04 03:01:28;;;;;;;7.68;5.97;;;;;;;0.30;100.00;94358.81;5112530;28;24413;-71
2021/12/04 03:04:05;;;;;;;6.83;6.23;;;;;;;0.34;100.00;94358.63;5112271;28;24417;-72
2021/12/04 03:06:32;;;;;;;6.43;5.82;;;;;;;0.29;100.00;94347.00;5111828;28;24973;-71
2021/12/04 03:08:58;;;;;;;8.38;6.40;;;;;;;0.30;100.00;94351.19;5112420;28;24417;-71
2021/12/04 03:11:28;;;;;;;7.50;6.30;;;;;;;0.30;100.00;94326.56;5112458;28;24501;-71
2021/12/04 03:13:56;;;;;;;7.15;6.10;;;;;;;0.33;100.00;94330.69;5112159;28;24416;-71
2021/12/04 03:16:24;;;;;;;6.72;5.75;;;;;;;0.35;100.00;94326.34;5111832;28;24459;-70
2021/12/04 03:18:50;;;;;;;6.35;5.75;;;;;;;0.32;100.00;94322.22;5111898;28;24446;-70
2021/12/04 03:21:17;;;;;;;5.85;5.25;;;;;;;0.34;100.00;94317.06;5112213;28;24420;-70
2021/12/04 03:23:52;;;;;;;6.10;5.50;;;;;;;0.36;100.00;94316.06;5112276;28;24422;-70
2021/12/04 03:26:18;;;;;;;5.40;4.90;;;;;;;0.29;100.00;94307.06;5112005;28;24475;-70
2021/12/04 03:28:45;;;;;;;6.15;5.05;;;;;;;0.31;100.00;94307.03;5111889;28;24957;-73
2021/12/04 03:31:17;;;;;;;6.07;5.28;;;;;;;0.31;100.00;94296.84;5111755;28;24622;-71
2021/12/04 03:41:56;;;;;;;5.13;4.65;;;;;;;0.42;100.00;94272.50;5111733;28;24408;-70
2021/12/04 03:44:23;;;;;;;8.88;4.60;;;;;;;0.57;100.00;94270.13;5111515;28;24421;-71
2021/12/04 03:46:51;;;;;;;5.55;4.95;;;;;;;0.46;100.00;94268.09;5111452;28;24432;-73
2021/12/04 03:49:18;;;;;;;4.72;4.32;;;;;;;0.40;100.00;94268.38;5111614;28;24463;-70
2021/12/04 03:51:44;;;;;;;5.68;4.85;;;;;;;0.40;100.00;94261.56;5111548;28;24417;-70
2021/12/04 03:54:11;;;;;;;5.32;4.82;;;;;;;0.30;100.00;94262.06;5111274;28;24421;-72
2021/12/04 03:56:37;;;;;;;5.30;4.80;;;;;;;0.35;100.00;94249.94;5111413;28;24429;-71
2021/12/04 03:59:04;;;;;;;5.72;4.72;;;;;;;0.36;100.00;94242.22;5111672;28;24437;-71
2021/12/04 04:01:31;;;;;;;5.22;4.72;;;;;;;0.30;100.00;94239.13;5111276;28;24950;-71
2021/12/04 04:03:58;;;;;;;5.75;4.30;;;;;;;0.30;100.00;94231.50;5111349;28;24417;-73
2021/12/04 04:06:25;;;;;;;4.68;4.28;;;;;;;0.35;100.00;94225.31;5110366;28;24463;-73
2021/12/04 04:08:51;;;;;;;4.43;4.03;;;;;;;0.41;100.00;94227.56;5111031;28;24436;-71
2021/12/04 04:11:18;;;;;;;5.80;4.70;;;;;;;0.37;100.00;94225.22;5111352;28;24429;-71
2021/12/04 04:13:45;;;;;;;4.53;4.13;;;;;;;0.36;100.00;94226.13;5111083;28;24954;-71
2021/12/04 04:16:12;;;;;;;5.35;4.78;;;;;;;0.31;100.00;94211.06;5110854;28;24503;-72
2021/12/04 04:18:39;;;;;;;6.20;4.38;;;;;;;0.38;100.00;94204.78;5110834;28;25074;-72
2021/12/04 04:21:07;;;;;;;4.70;3.88;;;;;;;0.33;100.00;94214.34;5110850;28;24432;-72
2021/12/04 04:23:33;;;;;;;7.15;3.85;;;;;;;0.31;100.00;94212.81;5110782;28;24420;-73
2021/12/04 04:26:01;;;;;;;4.20;3.78;;;;;;;0.36;100.00;94203.22;5110773;28;24420;-71
2021/12/04 04:28:27;;;;;;;4.30;3.90;;;;;;;0.31;100.00;94200.06;5110968;28;24425;-73
2021/12/04 04:30:54;;;;;;;4.18;3.85;;;;;;;0.30;100.00;94198.41;5110791;28;24483;-71
2021/12/04 04:33:20;;;;;;;4.47;4.07;;;;;;;0.29;100.00;94196.75;5110812;28;24425;-71
2021/12/04 04:35:58;;;;;;;4.23;3.83;;;;;;;0.41;100.00;94189.38;5110331;28;24421;-71
2021/12/04 04:38:35;;;;;;;4.10;3.50;;;;;;;0.33;100.00;94182.97;5110951;28;24425;-71
2021/12/04 04:57:50;;;;;;;3.70;3.38;;;;;;;0.38;100.00;94192.06;5110577;28;24989;-72
2021/12/04 05:11:36;;;;;;;3.42;3.13;;;;;;;0.40;100.00;94167.31;5110527;28;24993;-70
2021/12/04 05:14:05;;;;;;;3.38;2.97;;;;;;;0.41;100.00;94166.44;5110613;28;24421;-72
2021/12/04 05:16:42;;;;;;;3.72;3.03;;;;;;;0.51;100.00;94163.44;5110113;28;24433;-71
2021/12/04 05:19:24;;;;;;;2.65;2.38;;;;;;;0.46;100.00;94153.47;5113335;28;24449;-72
2021/12/04 05:21:50;;;;;;;2.80;2.60;;;;;;;0.46;100.00;94144.09;5114255;28;24425;-71
2021/12/04 05:24:17;;;;;;;3.00;2.70;;;;;;;0.47;100.00;94153.38;5114495;28;24417;-72
2021/12/04 05:26:44;;;;;;;3.10;2.75;;;;;;;0.47;100.00;94161.03;5114040;28;24425;-72
2021/12/04 05:29:11;;;;;;;3.65;2.40;;;;;;;0.48;100.00;94151.66;5114284;28;24413;-74
2021/12/04 05:31:37;;;;;;;2.73;2.30;;;;;;;0.50;100.00;94154.16;5114178;28;24425;-72
2021/12/04 05:34:04;;;;;;;2.20;2.00;;;;;;;0.52;100.00;94155.72;5113995;28;24418;-71
2021/12/04 05:36:30;;;;;;;3.45;3.00;;;;;;;0.53;100.00;94147.19;5113555;28;24443;-71
2021/12/04 05:38:57;;;;;;;3.28;2.97;;;;;;;0.52;100.00;94142.16;5114110;28;24446;-70
2021/12/04 05:41:24;;;;;;;4.10;3.70;;;;;;;0.51;100.00;94138.78;5113992;28;25081;-71
2021/12/04 05:43:52;;;;;;;2.08;1.92;;;;;;;0.70;100.00;94134.44;5113870;28;24489;-71
2021/12/04 05:46:21;;;;;;;2.67;2.47;;;;;;;0.63;100.00;94125.44;5113617;27;24413;-70
2021/12/04 05:48:51;;;;;;;2.45;2.17;;;;;;;0.61;100.00;94118.78;5113795;28;24417;-72
2021/12/04 05:51:32;;;;;;;2.25;2.05;;;;;;;0.57;100.00;94115.56;5113744;28;24950;-73
2021/12/04 05:54:05;;;;;;;1.45;1.35;;;;;;;0.59;100.00;94123.94;5113916;28;24470;-71
2021/12/04 05:56:34;;;;;;;1.75;1.40;;;;;;;0.58;100.00;94132.47;5113493;28;24440;-72
2021/12/04 05:59:04;;;;;;;2.40;1.95;;;;;;;0.62;100.00;94128.88;5113548;28;24544;-72
2021/12/04 06:01:31;;;;;;;1.67;1.55;;;;;;;0.64;100.00;94124.53;5113476;28;24429;-72
2021/12/04 06:04:00;;;;;;;1.50;1.40;;;;;;;0.59;100.00;94130.75;5113774;28;24413;-72
2021/12/04 06:06:26;;;;;;;1.92;1.60;;;;;;;0.69;100.00;94135.31;5113222;28;24425;-72
2021/12/04 06:08:53;;;;;;;1.73;1.63;;;;;;;0.69;100.00;94132.75;5113548;28;24432;-71
2021/12/04 06:11:19;;;;;;;1.63;1.52;;;;;;;0.64;100.00;94131.38;5114028;28;24817;-71
2021/12/04 06:13:46;;;;;;;1.98;1.80;;;;;;;0.63;100.00;94127.16;5113119;28;24958;-73
2021/12/04 06:16:14;;;;;;;1.80;1.60;;;;;;;0.64;100.00;94134.72;5113299;28;24421;-71
2021/12/04 06:18:41;;;;;;;2.40;1.60;;;;;;;0.60;100.00;94138.34;5113451;28;24428;-73
2021/12/04 06:23:52;;;;;;;1.58;1.35;;;;;;;0.61;100.00;94132.34;5113348;28;24425;-72
2021/12/04 06:26:18;;;;;;;1.57;1.47;;;;;;;0.69;100.00;94125.13;5112685;28;24969;-71
2021/12/04 06:28:45;;;;;;;2.40;1.40;;;;;;;0.73;100.00;94130.88;5113048;28;24420;-72
2021/12/04 06:31:11;;;;;;;1.75;1.55;;;;;;;0.72;100.00;94117.31;5113222;28;24479;-71
2021/12/04 06:33:40;;;;;;;1.60;1.27;;;;;;;0.75;100.00;94124.00;5113047;28;24421;-71
2021/12/04 06:36:08;;;;;;;2.65;1.30;;;;;;;0.76;100.00;94123.09;5112648;28;24429;-72
2021/12/04 06:38:35;;;;;;;1.33;1.23;;;;;;;0.79;100.00;94119.56;5112863;28;24482;-71
2021/12/04 06:41:02;;;;;;;1.40;1.10;;;;;;;0.82;100.00;94120.25;5112633;28;24984;-71
2021/12/04 06:43:29;;;;;;;1.93;1.40;;;;;;;0.87;100.00;94117.44;5112675;28;24512;-73
2021/12/04 06:46:01;;;;;;;1.08;0.98;;;;;;;0.95;100.00;94105.13;5112565;28;24872;-71
2021/12/04 06:48:36;;;;;;;1.30;1.20;;;;;;;0.92;100.00;94107.81;5113219;28;25057;-70
2021/12/04 06:51:09;;;;;;;1.60;1.30;;;;;;;0.95;100.00;94105.94;5112590;28;25018;-70
2021/12/04 06:53:40;;;;;;;2.03;1.80;;;;;;;0.97;100.00;94108.44;5112697;28;24414;-71
2021/12/04 06:56:08;;;;;;;5.13;3.75;;;;;;;0.95;100.00;94105.94;5112312;28;24474;-71
2021/12/04 06:58:36;;;;;;;11.35;7.00;;;;;;;1.00;100.00;94103.16;5112365;28;24548;-71
2021/12/04 07:01:03;;;;;;;9.95;6.88;;;;;;;1.04;100.00;94109.75;5112209;28;24441;-71
2021/12/04 07:03:30;;;;;;;8.73;6.65;;;;;;;1.01;100.00;94107.38;5112230;28;24424;-72
2021/12/04 07:05:56;;;;;;;5.05;3.20;;;;;;;1.01;100.00;94109.91;5111594;28;24546;-73
2021/12/04 07:08:24;;;;;;;1.50;1.40;;;;;;;1.02;100.00;94103.91;5112206;28;24453;-71
2021/12/04 07:10:51;;;;;;;3.10;1.38;;;;;;;1.03;100.00;94104.72;5111978;28;25003;-71
2021/12/04 07:13:17;;;;;;;2.15;1.40;;;;;;;1.04;100.00;94114.84;5111988;28;24471;-72
2021/12/04 07:15:45;;;;;;;1.65;1.55;;;;;;;1.05;100.00;94113.13;5111542;28;24425;-74
2021/12/04 07:18:12;;;;;;;2.60;1.80;;;;;;;1.01;100.00;94116.75;5111532;28;24429;-72
2021/12/04 07:20:39;;;;;;;1.73;1.50;;;;;;;1.03;100.00;94120.84;5111516;28;24448;-72
2021/12/04 07:23:05;;;;;;;2.85;1.90;;;;;;;1.07;100.00;94116.41;5112190;28;24428;-72
2021/12/04 07:25:33;;;;;;;4.15;3.75;;;;;;;1.07;100.00;94116.41;5111821;28;24783;-72
2021/12/04 07:28:00;;;;;;;2.23;2.00;;;;;;;1.12;100.00;94111.91;5111897;28;24421;-72
2021/12/04 07:30:26;;;;;;;1.52;1.42;;;;;;;1.17;100.00;94109.94;5111856;28;24414;-72
2021/12/04 07:32:53;;;;;;;1.48;1.38;;;;;;;1.22;100.00;94105.41;5111747;28;24414;-73
2021/12/04 07:35:19;;;;;;;2.13;1.92;;;;;;;1.23;100.00;94106.25;5111336;28;24417;-71
2021/12/04 07:37:46;;;;;;;2.28;2.08;;;;;;;1.23;100.00;94101.97;5111945;28;24429;-71
2021/12/04 07:40:13;;;;;;;3.47;1.93;;;;;;;1.21;100.00;94102.03;5111197;28;24437;-70
2021/12/04 07:42:41;;;;;;;2.45;2.25;;;;;;;1.26;100.00;94095.84;5111621;28;24425;-72
2021/12/04 07:45:08;;;;;;;1.97;1.67;;;;;;;1.26;100.00;94098.41;5111245;28;24417;-72
2021/12/04 07:47:35;;;;;;;3.92;1.83;;;;;;;1.29;100.00;94093.97;5111474;28;24512;-74
2021/12/04 07:50:04;;;;;;;12.48;2.38;;;;;;;1.25;100.00;94094.22;5111801;28;24783;-74
2021/12/04 07:52:30;;;;;;;4.10;3.20;;;;;;;1.24;100.00;94090.84;5111642;28;24500;-72
2021/12/04 07:54:56;;;;;;;20.97;14.53;;;;;;;1.26;100.00;94094.16;5111179;28;24961;-70
2021/12/04 07:57:25;;;;;;;101.63;78.68;;;;;;;1.32;100.00;94100.63;5111154;28;24822;-73
2021/12/04 07:59:53;;;;;;;3.78;3.10;;;;;;;1.36;100.00;94100.38;5111281;28;24442;-71
2021/12/04 08:02:19;;;;;;;21.98;13.13;;;;;;;1.36;100.00;94099.56;5111207;28;24416;-70
2021/12/04 08:04:46;;;;;;;6.22;5.15;;;;;;;1.36;100.00;94097.84;5111346;28;24457;-72
2021/12/04 08:07:12;;;;;;;10.20;6.43;;;;;;;1.38;100.00;94090.13;5111016;28;24429;-72
2021/12/04 08:09:39;;;;;;;9.30;4.73;;;;;;;1.39;100.00;94090.03;5111272;28;24512;-71
2021/12/04 08:12:06;;;;;;;6.43;3.78;;;;;;;1.43;100.00;94090.69;5111108;28;24470;-74
2021/12/04 08:14:32;;;;;;;6.63;4.35;;;;;;;1.47;100.00;94087.06;5110843;28;24428;-72
2021/12/04 08:17:00;;;;;;;4.80;3.70;;;;;;;1.58;100.00;94086.47;5110587;28;24954;-72
2021/12/04 08:19:26;;;;;;;3.42;2.28;;;;;;;1.64;100.00;94088.69;5110988;28;24406;-72
2021/12/04 08:21:53;;;;;;;3.28;2.22;;;;;;;1.65;100.00;94087.78;5111096;28;24417;-72
2021/12/04 08:24:19;;;;;;;8.82;7.43;;;;;;;1.61;100.00;94084.56;5111052;28;24433;-72
2021/12/04 08:26:47;;;;;;;4.50;3.33;;;;;;;1.64;100.00;94083.59;5110665;28;24428;-72
2021/12/04 08:29:14;;;;;;;7.35;5.57;;;;;;;1.65;100.00;94083.50;5110747;28;24440;-72
2021/12/04 08:31:42;;;;;;;2.63;2.08;;;;;;;1.65;100.00;94086.06;5111007;28;24433;-72
2021/12/04 08:34:10;;;;;;;3.17;2.60;;;;;;;1.68;100.00;94088.44;5111043;28;24601;-71
2021/12/04 08:36:37;;;;;;;2.20;1.80;;;;;;;1.69;100.00;94092.63;5110307;28;25109;-72
2021/12/04 08:39:05;;;;;;;3.30;2.72;;;;;;;1.67;100.00;94094.47;5110900;28;24414;-74
2021/12/04 08:41:32;;;;;;;5.28;3.08;;;;;;;1.67;100.00;94086.81;5110555;28;24468;-71
2021/12/04 08:43:59;;;;;;;5.05;4.00;;;;;;;1.73;100.00;94087.34;5110838;28;24421;-72
2021/12/04 08:46:26;;;;;;;3.50;2.75;;;;;;;1.76;100.00;94077.00;5110276;28;24439;-71
2021/12/04 08:48:55;;;;;;;2.25;1.70;;;;;;;1.81;100.00;94082.66;5110883;28;24780;-71
2021/12/04 08:51:23;;;;;;;1.30;1.20;;;;;;;1.81;100.00;94091.13;5110842;28;25037;-71
2021/12/04 08:53:50;;;;;;;3.10;1.50;;;;;;;1.81;100.00;94085.19;5114973;28;24425;-71
2021/12/04 08:56:17;;;;;;;2.00;1.70;;;;;;;1.86;100.00;94086.59;5114374;28;24424;-72
2021/12/04 08:58:44;;;;;;;1.52;1.20;;;;;;;1.93;100.00;94081.97;5115144;28;24421;-73
2021/12/04 09:01:22;;;;;;;1.30;0.80;;;;;;;1.99;100.00;94075.69;5114909;28;24464;-71
2021/12/04 09:03:49;;;;;;;1.70;1.10;;;;;;;2.08;100.00;94070.09;5114830;28;24459;-73
2021/12/04 09:06:19;;;;;;;0.80;0.80;;;;;;;2.21;100.00;94067.63;5114338;28;24961;-72
2021/12/04 09:08:48;;;;;;;0.90;0.70;;;;;;;2.25;100.00;94061.44;5114659;28;24425;-72
2021/12/04 09:11:17;;;;;;;1.30;0.95;;;;;;;2.28;100.00;94063.81;5114819;28;24818;-71
2021/12/04 09:13:44;;;;;;;4.40;1.00;;;;;;;2.31;100.00;94067.03;5114746;28;24775;-74
2021/12/04 09:16:11;;;;;;;1.60;0.90;;;;;;;2.32;100.00;94065.28;5114294;28;24430;-71
2021/12/04 09:18:38;;;;;;;1.47;1.20;;;;;;;2.38;100.00;94072.59;5114543;28;24894;-72
2021/12/04 09:21:05;;;;;;;5.80;4.25;;;;;;;2.42;100.00;94061.28;5114396;28;24441;-74
2021/12/04 09:23:35;;;;;;;8.82;5.93;;;;;;;2.46;100.00;94065.31;5114300;28;24421;-74
2021/12/04 09:26:03;;;;;;;6.15;5.30;;;;;;;2.48;100.00;94067.75;5114099;28;24418;-72
2021/12/04 09:28:40;;;;;;;2.25;1.77;;;;;;;2.49;100.00;94062.59;5114331;28;24425;-74
2021/12/04 09:34:20;;;;;;;3.50;2.90;;;;;;;2.62;100.00;94053.25;5114183;28;24417;-73
2021/12/04 09:40:17;;;;;;;3.80;2.53;;;;;;;2.67;100.00;94053.00;5113773;28;24994;-74
2021/12/04 10:02:08;;;;;;;3.83;3.45;;;;;;;3.14;100.00;94033.97;5110748;28;24982;-72
2021/12/04 10:04:56;;;;;;;3.45;2.80;;;;;;;3.20;100.00;94030.22;5112914;27;24425;-72
2021/12/04 10:13:32;;;;;;;11.23;6.90;;;;;;;3.42;100.00;94014.34;5109923;28;24437;-74
2021/12/04 10:18:54;;;;;;;13.00;7.07;;;;;;;3.58;100.00;94010.72;5072034;28;24511;-72
2021/12/04 10:21:35;;;;;;;5.38;4.88;;;;;;;3.62;100.00;94003.66;5113224;28;24584;-72
2021/12/04 10:32:40;;;;;;;2.40;2.13;;;;;;;4.08;100.00;93987.88;5113197;28;24501;-72
2021/12/04 10:35:14;;;;;;;3.30;1.77;;;;;;;4.10;100.00;93993.72;5112764;28;24478;-72
2021/12/04 10:37:50;;;;;;;2.00;1.60;;;;;;;4.14;100.00;93982.34;5113027;28;24429;-72
2021/12/04 10:40:19;;;;;;;2.13;1.80;;;;;;;4.19;100.00;93975.19;5112803;28;24448;-72
2021/12/04 10:42:50;;;;;;;1.90;1.50;;;;;;;4.20;100.00;93973.44;5113100;28;24409;-71
2021/12/04 10:45:17;;;;;;;3.17;2.78;;;;;;;4.26;100.00;93967.88;5112855;28;24424;-72
2021/12/04 10:47:53;;;;;;;4.82;2.38;;;;;;;4.33;100.00;93972.50;5112902;28;24420;-72
2021/12/04 10:50:27;;;;;;;3.20;2.90;;;;;;;4.37;100.00;93965.41;5112887;28;24601;-71
2021/12/04 10:52:57;;;;;;;3.90;3.22;;;;;;;4.40;100.00;93954.97;5112711;28;25129;-74
2021/12/04 10:55:31;;;;;;;3.55;1.60;;;;;;;4.49;100.00;93962.06;5112500;28;24422;-73
2021/12/04 10:58:22;;;;;;;1.80;1.23;;;;;;;4.46;100.00;93964.00;5112694;28;24420;-71
2021/12/04 11:00:57;;;;;;;1.20;1.10;;;;;;;4.50;100.00;93942.34;5112537;28;24540;-74
2021/12/04 11:03:36;;;;;;;1.20;1.10;;;;;;;4.52;100.00;93945.63;5112392;28;24782;-72
2021/12/04 11:23:37;;;;;;;1.17;1.02;;;;;;;5.13;100.00;93933.69;5149202;27;24400;-72
2021/12/04 11:26:37;;;;;;;2.55;1.30;;;;;;;5.16;100.00;93935.22;5148883;27;24985;-74
2021/12/04 11:40:12;;;;;;;2.35;1.33;;;;;;;5.09;100.00;93916.88;5149056;27;24550;-72
2021/12/04 11:42:41;;;;;;;2.63;1.45;;;;;;;5.15;100.00;93906.16;5149059;27;24519;-72
2021/12/04 11:45:16;;;;;;;1.88;1.10;;;;;;;5.21;100.00;93903.16;5148385;27;24463;-71
2021/12/04 11:47:47;;;;;;;4.68;2.45;;;;;;;5.19;100.00;93893.91;5148840;27;24551;-71
2021/12/04 11:50:16;;;;;;;7.28;5.10;;;;;;;5.15;100.00;93897.63;5148747;27;24460;-71
2021/12/04 11:52:46;;;;;;;11.27;5.78;;;;;;;5.21;100.00;93885.19;5148771;27;24825;-71
2021/12/04 11:55:14;;;;;;;3.60;2.88;;;;;;;5.28;100.00;93883.00;5148232;27;24421;-73
2021/12/04 11:57:42;;;;;;;6.68;4.63;;;;;;;5.25;100.00;93871.19;5148386;27;24420;-72
2021/12/04 12:00:14;;;;;;;5.13;4.03;;;;;;;5.22;100.00;93868.03;5148732;27;24443;-72
2021/12/04 12:02:42;;;;;;;3.55;2.88;;;;;;;5.24;100.00;93866.19;5148624;27;24456;-70
2021/12/04 12:05:15;;;;;;;2.88;2.33;;;;;;;5.28;100.00;93857.34;5148189;27;24417;-71
2021/12/04 12:07:50;;;;;;;3.88;2.42;;;;;;;5.28;100.00;93854.78;5148187;27;24458;-71
2021/12/04 12:10:18;;;;;;;3.55;2.75;;;;;;;5.25;100.00;93849.84;5148552;27;24427;-71
2021/12/04 12:12:48;;;;;;;3.50;2.35;;;;;;;5.29;100.00;93852.09;5148409;27;24408;-72
2021/12/04 12:15:23;;;;;;;5.15;3.20;;;;;;;5.30;100.00;93847.75;5148154;27;24437;-71
2021/12/04 12:17:51;;;;;;;3.53;2.60;;;;;;;5.35;100.00;93850.84;5148218;27;24455;-71
2021/12/04 12:20:34;;;;;;;6.97;3.70;;;;;;;5.35;100.00;93845.69;5135226;27;24413;-73
2021/12/04 12:23:11;;;;;;;5.18;3.42;;;;;;;5.30;100.00;93846.03;5134492;27;24451;-72
2021/12/04 12:26:00;;;;;;;1.90;1.57;;;;;;;5.30;100.00;93840.91;5134189;27;24524;-70
2021/12/04 12:37:23;;;;;;;1.55;1.08;;;;;;;5.44;100.00;93829.59;5133376;27;24436;-72
2021/12/04 12:39:56;;;;;;;1.30;1.20;;;;;;;5.47;100.00;93826.00;5134291;27;24420;-71
2021/12/04 12:42:25;;;;;;;2.03;1.37;;;;;;;5.48;100.00;93825.88;5133945;27;24457;-72
2021/12/04 12:44:53;;;;;;;2.40;1.67;;;;;;;5.56;100.00;93823.59;5133807;27;24413;-74
2021/12/04 12:47:21;;;;;;;2.73;1.90;;;;;;;5.62;100.00;93821.47;5133433;27;24545;-73
2021/12/04 12:49:49;;;;;;;7.60;3.85;;;;;;;5.65;100.00;93821.25;5133539;27;24443;-71
2021/12/04 12:52:20;;;;;;;16.33;7.80;;;;;;;5.63;100.00;93823.09;5133793;27;24512;-71
2021/12/04 12:54:53;;;;;;;4.40;3.70;;;;;;;5.74;100.00;93820.56;5133561;27;24424;-71
2021/12/04 12:57:24;;;;;;;1.23;1.07;;;;;;;5.73;100.00;93830.00;5133400;27;24502;-71
2021/12/04 13:13:55;;;;;;;2.10;1.63;;;;;;;5.79;100.00;93819.28;5133500;27;24492;-73
2021/12/04 13:16:30;;;;;;;1.13;0.90;;;;;;;5.88;100.00;93824.66;5132979;27;24416;-74
2021/12/04 13:19:01;;;;;;;1.10;0.80;;;;;;;5.93;100.00;93813.16;5133181;27;24860;-74
2021/12/04 13:21:28;;;;;;;1.00;0.73;;;;;;;5.97;100.00;93822.25;5133360;27;24439;-73
2021/12/04 13:23:57;;;;;;;1.80;1.20;;;;;;;5.95;100.00;93813.84;5133250;27;24786;-72
2021/12/04 13:26:27;;;;;;;2.70;2.13;;;;;;;5.93;100.00;93820.84;5132842;27;24487;-74
2021/12/04 13:28:54;;;;;;;7.55;5.70;;;;;;;5.91;100.00;93827.00;5133034;27;24524;-74
2021/12/04 13:31:22;;;;;;;2.28;1.60;;;;;;;6.02;100.00;93817.56;5131741;27;24424;-71
2021/12/04 13:33:51;;;;;;;2.67;1.60;;;;;;;6.01;100.00;93808.25;5133203;27;24417;-73
2021/12/04 13:36:20;;;;;;;4.57;4.13;;;;;;;5.95;100.00;93825.88;5132473;27;24791;-73
2021/12/04 13:38:47;;;;;;;1.80;1.40;;;;;;;5.98;100.00;93817.94;5132774;27;24992;-73
2021/12/04 13:41:14;;;;;;;1.67;1.30;;;;;;;6.02;100.00;93820.16;5132948;27;24424;-73
2021/12/04 13:43:40;;;;;;;2.13;1.25;;;;;;;6.02;100.00;93814.19;5132693;27;24428;-73
2021/12/04 13:46:07;;;;;;;1.75;1.00;;;;;;;6.04;100.00;93820.03;5132377;27;24420;-74
2021/12/04 13:48:36;;;;;;;4.17;1.30;;;;;;;6.03;100.00;93826.91;5132643;27;24504;-73
2021/12/04 13:51:04;;;;;;;4.03;1.33;;;;;;;6.07;100.00;93819.78;5132420;27;24957;-74
2021/12/04 13:53:34;;;;;;;1.90;1.10;;;;;;;6.06;100.00;93815.59;5132531;27;24508;-73
2021/12/04 13:56:04;;;;;;;1.30;0.90;;;;;;;6.04;100.00;93818.28;5132376;27;24454;-73
2021/12/04 13:58:31;;;;;;;1.08;0.82;;;;;;;6.02;100.00;93830.44;5132175;27;24449;-71
2021/12/04 14:01:00;;;;;;;1.38;1.20;;;;;;;6.03;100.00;93818.41;5132551;27;24807;-71